createdAt,value
2018-10-07T00:00:45.378Z,14.3
2018-10-07T00:05:42.011Z,14.3
2018-10-07T00:10:38.831Z,14.3
2018-10-07T00:15:35.515Z,14.2
2018-10-07T00:20:32.197Z,14.2
2018-10-07T00:25:29.010Z,14.1
2018-10-07T00:30:25.836Z,14.1
2018-10-07T00:35:22.689Z,14.1
2018-10-07T00:40:19.173Z,14
2018-10-07T00:45:15.761Z,14
2018-10-07T00:50:12.281Z,13.9
2018-10-07T00:55:09.029Z,13.6
2018-10-07T01:00:05.978Z,13.8
2018-10-07T01:05:02.908Z,13.8
2018-10-07T01:09:59.864Z,13.7
2018-10-07T01:14:56.689Z,13.6
2018-10-07T01:19:53.531Z,13.6
2018-10-07T01:24:50.091Z,13.5
2018-10-07T01:29:47.111Z,13.5
2018-10-07T01:34:43.556Z,13.5
2018-10-07T01:39:40.029Z,12.8
2018-10-07T01:44:36.527Z,13.4
2018-10-07T01:49:34.254Z,13.4
2018-10-07T01:54:30.221Z,13.4
2018-10-07T01:59:27.463Z,13.4
2018-10-07T02:04:24.251Z,13.3
2018-10-07T02:09:20.776Z,13.3
2018-10-07T02:14:16.888Z,13.3
2018-10-07T02:19:13.772Z,13.3
2018-10-07T02:24:10.464Z,13.2
2018-10-07T02:29:07.148Z,13.2
2018-10-07T02:34:04.257Z,12.4
2018-10-07T02:39:00.185Z,13.1
2018-10-07T02:43:56.876Z,13
2018-10-07T02:48:54.032Z,13
2018-10-07T02:53:50.649Z,13
2018-10-07T02:58:47.560Z,13
2018-10-07T03:03:44.789Z,13
2018-10-07T03:08:41.685Z,12.9
2018-10-07T03:13:38.254Z,12.9
2018-10-07T03:18:34.792Z,12.6
2018-10-07T03:23:31.537Z,12.9
2018-10-07T03:28:28.084Z,12.7
2018-10-07T03:33:24.373Z,12.8
2018-10-07T03:38:21.374Z,12.7
2018-10-07T03:43:18.032Z,12
2018-10-07T03:48:15.235Z,12.5
2018-10-07T03:53:11.759Z,11.8
2018-10-07T03:58:08.695Z,11.6
2018-10-07T04:03:05.490Z,11.7
2018-10-07T04:08:02.237Z,11.5
2018-10-07T04:12:58.837Z,12.2
2018-10-07T04:17:55.476Z,11.4
2018-10-07T04:22:52.247Z,11.3
2018-10-07T04:27:48.876Z,11.4
2018-10-07T04:32:45.380Z,11.3
2018-10-07T04:37:42.296Z,12
2018-10-07T04:42:38.774Z,12
2018-10-07T04:47:35.495Z,11.9
2018-10-07T04:52:32.009Z,11.1
2018-10-07T04:57:29.106Z,11.1
2018-10-07T05:02:25.989Z,11.8
2018-10-07T05:07:22.536Z,11.8
2018-10-07T05:12:19.890Z,11.7
2018-10-07T05:17:15.932Z,11.7
2018-10-07T05:22:12.738Z,11.7
2018-10-07T05:27:09.549Z,11.4
2018-10-07T05:32:06.277Z,11.6
2018-10-07T05:37:02.564Z,11.6
2018-10-07T05:41:59.251Z,11.6
2018-10-07T05:46:55.748Z,11.1
2018-10-07T05:51:52.244Z,11.5
2018-10-07T05:56:48.976Z,11.2
2018-10-07T06:01:46.029Z,11.8
2018-10-07T06:06:42.440Z,11.1
2018-10-07T06:11:39.096Z,11.8
2018-10-07T06:16:35.566Z,11.7
2018-10-07T06:21:31.865Z,11.4
2018-10-07T06:26:29.072Z,11.9
2018-10-07T06:31:25.933Z,12
2018-10-07T06:36:22.681Z,12
2018-10-07T06:41:19.341Z,12.1
2018-10-07T06:46:16.435Z,11.5
2018-10-07T06:51:12.808Z,12.3
2018-10-07T06:56:09.881Z,12.3
2018-10-07T07:01:06.985Z,12.1
2018-10-07T07:06:03.787Z,11.8
2018-10-07T07:11:00.638Z,12.6
2018-10-07T07:15:57.090Z,12.6
2018-10-07T07:20:54.691Z,12.7
2018-10-07T07:25:52.387Z,12.8
2018-10-07T07:30:49.798Z,12.8
2018-10-07T07:35:46.861Z,12.9
2018-10-07T07:40:44.295Z,13
2018-10-07T07:45:40.631Z,13.1
2018-10-07T07:50:37.185Z,12.4
2018-10-07T07:55:33.684Z,12.9
2018-10-07T08:00:29.961Z,13.3
2018-10-07T08:05:26.731Z,13.4
2018-10-07T08:10:23.533Z,13.5
2018-10-07T08:15:20.364Z,13.6
2018-10-07T08:20:17.107Z,13.6
2018-10-07T08:25:13.929Z,13.7
2018-10-07T08:30:10.799Z,13.8
2018-10-07T08:35:07.119Z,13.8
2018-10-07T08:40:03.758Z,14
2018-10-07T08:45:00.367Z,14.1
2018-10-07T08:49:57.437Z,14.2
2018-10-07T08:54:54.007Z,14.3
2018-10-07T08:59:50.912Z,14.4
2018-10-07T09:04:47.766Z,14.6
2018-10-07T09:09:44.618Z,14
2018-10-07T09:14:40.974Z,14.8
2018-10-07T09:19:37.657Z,15
2018-10-07T09:24:34.438Z,15.1
2018-10-07T09:29:30.952Z,14.5
2018-10-07T09:34:27.751Z,14.7
2018-10-07T09:39:24.246Z,15.5
2018-10-07T09:44:21.268Z,15.4
2018-10-07T09:49:18.088Z,16
2018-10-07T09:54:15.318Z,16.4
2018-10-07T09:59:12.926Z,16.8
2018-10-07T10:04:09.463Z,17
2018-10-07T10:09:05.954Z,17.3
2018-10-07T10:14:02.891Z,16.4
2018-10-07T10:18:59.681Z,17.7
2018-10-07T10:23:56.817Z,17.1
2018-10-07T10:28:53.621Z,17.9
2018-10-07T10:33:49.368Z,17.8
2018-10-07T10:38:46.073Z,17.5
2018-10-07T10:43:43.041Z,18.2
2018-10-07T10:48:39.896Z,18.2
2018-10-07T10:53:36.948Z,18.3
2018-10-07T10:58:33.707Z,18.4
2018-10-07T11:03:30.785Z,18.3
2018-10-07T11:08:27.452Z,18.7
2018-10-07T11:13:24.266Z,19
2018-10-07T11:18:21.438Z,18.5
2018-10-07T11:23:16.473Z,18.8
2018-10-07T11:28:14.224Z,19.7
2018-10-07T11:33:11.476Z,19.2
2018-10-07T11:38:09.645Z,20.1
2018-10-07T11:43:06.720Z,19.7
2018-10-07T11:48:04.972Z,20
2018-10-07T11:53:01.535Z,20.2
2018-10-07T11:57:59.179Z,20.4
2018-10-07T12:02:56.818Z,21.2
2018-10-07T12:07:53.531Z,20.8
2018-10-07T12:12:50.709Z,21
2018-10-07T12:17:48.317Z,21.7
2018-10-07T12:22:46.265Z,21.8
2018-10-07T12:27:43.311Z,21.3
2018-10-07T12:32:40.370Z,21.4
2018-10-07T12:37:37.488Z,21.4
2018-10-07T12:42:35.436Z,22.1
2018-10-07T12:47:32.330Z,21.6
2018-10-07T12:52:29.219Z,21.6
2018-10-07T12:57:25.720Z,21.5
2018-10-07T13:02:23.114Z,22.1
2018-10-07T13:07:21.118Z,22.1
2018-10-07T13:12:17.890Z,21.5
2018-10-07T13:17:15.391Z,22.1
2018-10-07T13:22:12.218Z,21.4
2018-10-07T13:27:10.467Z,21.4
2018-10-07T13:32:07.080Z,21.2
2018-10-07T13:37:04.082Z,21.2
2018-10-07T14:08:01.143Z,21.7
2018-10-07T14:12:59.245Z,21
2018-10-07T14:17:55.971Z,21
2018-10-07T14:22:53.348Z,21.5
2018-10-07T14:27:50.661Z,21.4
2018-10-07T14:32:47.874Z,21.3
2018-10-07T14:37:45.029Z,21.3
2018-10-07T14:42:41.691Z,20.5
2018-10-07T14:47:39.454Z,21.1
2018-10-07T14:52:36.626Z,21.1
2018-10-07T14:57:35.380Z,21
2018-10-07T15:02:32.461Z,20.9
2018-10-07T15:07:29.392Z,20.9
2018-10-07T15:12:26.320Z,20.2
2018-10-07T15:17:23.561Z,20.7
2018-10-07T15:22:20.254Z,20
2018-10-07T15:27:17.394Z,19.9
2018-10-07T15:32:14.237Z,19.8
2018-10-07T15:37:10.928Z,19.8
2018-10-07T15:42:07.986Z,20.1
2018-10-07T15:47:04.819Z,19.7
2018-10-07T15:52:01.804Z,19.6
2018-10-07T15:56:58.699Z,20.2
2018-10-07T16:01:58.160Z,19.7
2018-10-07T16:06:54.774Z,20.1
2018-10-07T16:11:52.372Z,19.4
2018-10-07T16:16:49.788Z,19.9
2018-10-07T16:21:46.743Z,19.3
2018-10-07T16:26:43.792Z,19.1
2018-10-07T16:31:43.698Z,19.7
2018-10-07T16:36:41.420Z,19.6
2018-10-07T16:41:38.058Z,18.9
2018-10-07T16:46:36.921Z,19.2
2018-10-07T16:51:33.724Z,19.4
2018-10-07T16:56:31.554Z,19.3
2018-10-07T17:01:30.144Z,18.5
2018-10-07T17:06:26.745Z,19.2
2018-10-07T17:11:23.478Z,18.4
2018-10-07T17:16:20.923Z,19.1
2018-10-07T17:21:19.539Z,18.3
2018-10-07T17:26:16.953Z,18.5
2018-10-07T17:31:13.556Z,18.8
2018-10-07T17:36:10.323Z,18.7
2018-10-07T17:41:09.146Z,18.6
2018-10-07T17:46:05.813Z,18.5
2018-10-07T17:51:03.442Z,18.4
2018-10-07T17:56:00.559Z,18.3
2018-10-07T18:00:58.910Z,18.2
2018-10-07T18:05:56.731Z,17.4
2018-10-07T18:10:53.762Z,17.4
2018-10-07T18:15:52.425Z,17.6
2018-10-07T18:20:49.141Z,17.5
2018-10-07T18:25:46.384Z,17.8
2018-10-07T18:30:42.905Z,17.7
2018-10-07T18:35:39.813Z,17.6
2018-10-07T18:40:36.761Z,17.5
2018-10-07T18:45:33.683Z,17.1
2018-10-07T18:50:30.452Z,17.4
2018-10-07T18:55:27.717Z,17.3
2018-10-07T19:00:26.908Z,17.3
2018-10-07T19:05:24.198Z,17.2
2018-10-07T19:10:20.955Z,17.2
2018-10-07T19:15:19.120Z,16.4
2018-10-07T19:20:20.415Z,16.4
2018-10-07T19:25:17.941Z,17
2018-10-07T19:30:14.896Z,17
2018-10-07T19:35:11.772Z,16.9
2018-10-07T19:40:09.997Z,16.1
2018-10-07T19:45:07.345Z,16.8
2018-10-07T19:50:03.995Z,16.7
2018-10-07T19:55:01.319Z,16.1
2018-10-07T19:59:58.233Z,16.7
2018-10-07T20:04:54.875Z,16.6
2018-10-07T20:09:51.574Z,16.6
2018-10-07T20:14:48.235Z,16.5
2018-10-07T20:19:45.900Z,16.5
2018-10-07T20:24:43.467Z,16.4
2018-10-07T20:29:40.308Z,16.4
2018-10-07T20:34:36.871Z,16.3
2018-10-07T20:39:33.577Z,16.3
2018-10-07T20:44:30.332Z,16.2
2018-10-07T20:49:28.226Z,15.8
2018-10-07T20:54:25.691Z,15.5
2018-10-07T20:59:23.066Z,15.5
2018-10-07T21:04:19.618Z,16.1
2018-10-07T21:09:16.979Z,15.4
2018-10-07T21:14:13.949Z,16.1
2018-10-07T21:19:10.932Z,16.1
2018-10-07T21:24:08.024Z,16
2018-10-07T21:29:04.824Z,16
2018-10-07T21:34:01.575Z,15.3
2018-10-07T21:38:58.316Z,16
2018-10-07T21:43:55.901Z,15.3
2018-10-07T21:48:52.588Z,15.7
2018-10-07T21:53:49.958Z,15.3
2018-10-07T21:58:46.783Z,15.9
2018-10-07T22:03:44.102Z,15.2
2018-10-07T22:08:41.011Z,15.8
2018-10-07T22:13:37.670Z,15.7
2018-10-07T22:18:35.917Z,15.6
2018-10-07T22:23:33.310Z,14.8
2018-10-07T22:28:29.489Z,15.4
2018-10-07T22:33:26.174Z,14.7
2018-10-07T22:38:22.493Z,15.4
2018-10-07T22:43:19.792Z,14.6
2018-10-07T22:48:16.328Z,15.1
2018-10-07T22:53:13.163Z,15.1
2018-10-07T22:58:10.781Z,14.4
2018-10-07T23:03:08.057Z,14.3
2018-10-07T23:08:06.046Z,14.9
2018-10-07T23:13:02.810Z,14.1
2018-10-07T23:17:59.329Z,14.8
2018-10-07T23:22:56.195Z,14
2018-10-07T23:27:53.013Z,14.7
2018-10-07T23:32:50.378Z,14.7
2018-10-07T23:37:46.739Z,14.6
2018-10-07T23:42:43.595Z,13.9
2018-10-07T23:47:40.461Z,14.6
2018-10-07T23:52:40.151Z,13.9
2018-10-07T23:57:36.984Z,13.6
